White River, South Dakota
Current Conditions -  °F | °C
As of 8:53 AM on Saturday 25 Oct 2014 (Local Time) from KICR Reporting Station
Clear Clear  
Wind Chill: 47°   Ceiling: Unl
Heat Index: 49°   Visibility: 10mi
Dew Point: 36°   Wind: 5mph
Humidity: 61%   Direction: 260°W
Pressure: 30.18"   Gusts: NA
Location:  43.57°N, 100.75°W
Report Text: KICR 251453Z AUTO 26004KT 10SM CLR 09/02 A3018 RMK AO2 SLP222 T00940022 53013 $
Loading
Personal Weather Stations






























Interactive Weather Map
Tropical Storm Tracking
New forecast layout! Learn more

10-Day Weather Forecast

Advertisements
Track Severe Weather on mobile